sensor_id;sensor_type;location;lat;lon;timestamp;P1;durP1;ratioP1;P2;durP2;ratioP2
12302;SDS011;6214;48.012;7.862;2022-12-13T00:01:42;31.17;;;19.30;;
12302;SDS011;6214;48.012;7.862;2022-12-13T00:04:10;34.40;;;19.33;;
12302;SDS011;6214;48.012;7.862;2022-12-13T00:06:39;30.55;;;19.25;;
12302;SDS011;6214;48.012;7.862;2022-12-13T00:09:06;31.35;;;19.38;;
12302;SDS011;6214;48.012;7.862;2022-12-13T00:11:34;33.05;;;19.85;;
12302;SDS011;6214;48.012;7.862;2022-12-13T00:14:01;32.92;;;20.20;;
12302;SDS011;6214;48.012;7.862;2022-12-13T00:16:28;31.52;;;19.70;;
12302;SDS011;6214;48.012;7.862;2022-12-13T00:18:56;30.02;;;18.48;;
12302;SDS011;6214;48.012;7.862;2022-12-13T00:21:28;30.08;;;18.42;;
12302;SDS011;6214;48.012;7.862;2022-12-13T00:23:57;31.38;;;19.85;;
12302;SDS011;6214;48.012;7.862;2022-12-13T00:26:26;32.53;;;20.25;;
12302;SDS011;6214;48.012;7.862;2022-12-13T00:28:57;31.13;;;18.67;;
12302;SDS011;6214;48.012;7.862;2022-12-13T00:31:25;31.50;;;19.80;;
12302;SDS011;6214;48.012;7.862;2022-12-13T00:34:13;29.52;;;18.90;;
12302;SDS011;6214;48.012;7.862;2022-12-13T00:36:40;29.60;;;17.95;;
12302;SDS011;6214;48.012;7.862;2022-12-13T00:39:07;28.88;;;17.73;;
12302;SDS011;6214;48.012;7.862;2022-12-13T00:41:38;29.52;;;17.58;;
12302;SDS011;6214;48.012;7.862;2022-12-13T00:44:06;29.95;;;18.15;;
12302;SDS011;6214;48.012;7.862;2022-12-13T00:46:33;29.05;;;17.85;;
12302;SDS011;6214;48.012;7.862;2022-12-13T00:49:00;30.38;;;18.38;;
12302;SDS011;6214;48.012;7.862;2022-12-13T00:51:28;30.08;;;18.90;;
12302;SDS011;6214;48.012;7.862;2022-12-13T00:53:56;31.20;;;19.50;;
12302;SDS011;6214;48.012;7.862;2022-12-13T00:56:25;31.08;;;18.58;;
12302;SDS011;6214;48.012;7.862;2022-12-13T00:58:55;29.67;;;18.67;;
12302;SDS011;6214;48.012;7.862;2022-12-13T01:01:26;31.15;;;19.30;;
12302;SDS011;6214;48.012;7.862;2022-12-13T01:03:56;31.27;;;19.02;;
12302;SDS011;6214;48.012;7.862;2022-12-13T01:08:56;29.38;;;18.60;;
12302;SDS011;6214;48.012;7.862;2022-12-13T01:11:23;31.13;;;19.63;;
12302;SDS011;6214;48.012;7.862;2022-12-13T01:13:51;32.72;;;19.48;;
12302;SDS011;6214;48.012;7.862;2022-12-13T01:16:18;33.00;;;20.70;;
12302;SDS011;6214;48.012;7.862;2022-12-13T01:18:45;35.72;;;21.20;;
12302;SDS011;6214;48.012;7.862;2022-12-13T01:21:13;30.67;;;19.80;;
12302;SDS011;6214;48.012;7.862;2022-12-13T01:23:42;31.30;;;19.47;;
12302;SDS011;6214;48.012;7.862;2022-12-13T01:26:11;29.58;;;18.65;;
12302;SDS011;6214;48.012;7.862;2022-12-13T01:28:39;30.90;;;18.80;;
12302;SDS011;6214;48.012;7.862;2022-12-13T01:31:11;31.08;;;19.73;;
12302;SDS011;6214;48.012;7.862;2022-12-13T01:33:41;31.13;;;19.27;;
12302;SDS011;6214;48.012;7.862;2022-12-13T01:36:10;29.77;;;18.67;;
12302;SDS011;6214;48.012;7.862;2022-12-13T01:38:39;32.03;;;19.70;;
12302;SDS011;6214;48.012;7.862;2022-12-13T01:41:06;32.27;;;19.60;;
12302;SDS011;6214;48.012;7.862;2022-12-13T01:46:14;31.88;;;18.70;;
12302;SDS011;6214;48.012;7.862;2022-12-13T01:48:44;31.65;;;18.63;;
12302;SDS011;6214;48.012;7.862;2022-12-13T01:51:15;30.93;;;19.70;;
12302;SDS011;6214;48.012;7.862;2022-12-13T01:53:45;31.67;;;20.07;;
12302;SDS011;6214;48.012;7.862;2022-12-13T01:56:17;32.05;;;19.65;;
12302;SDS011;6214;48.012;7.862;2022-12-13T01:58:48;30.38;;;19.05;;
12302;SDS011;6214;48.012;7.862;2022-12-13T02:01:18;32.95;;;20.83;;
12302;SDS011;6214;48.012;7.862;2022-12-13T02:03:46;32.20;;;20.00;;
12302;SDS011;6214;48.012;7.862;2022-12-13T02:06:31;31.23;;;19.70;;
12302;SDS011;6214;48.012;7.862;2022-12-13T02:09:03;31.73;;;19.90;;
12302;SDS011;6214;48.012;7.862;2022-12-13T02:11:32;32.45;;;20.08;;
12302;SDS011;6214;48.012;7.862;2022-12-13T02:14:00;31.87;;;19.67;;
12302;SDS011;6214;48.012;7.862;2022-12-13T02:16:33;31.80;;;19.80;;
12302;SDS011;6214;48.012;7.862;2022-12-13T02:30:32;30.75;;;19.00;;
12302;SDS011;6214;48.012;7.862;2022-12-13T02:33:20;31.83;;;19.20;;
12302;SDS011;6214;48.012;7.862;2022-12-13T02:36:03;31.20;;;18.83;;
12302;SDS011;6214;48.012;7.862;2022-12-13T02:41:36;33.10;;;19.05;;
12302;SDS011;6214;48.012;7.862;2022-12-13T02:44:28;31.67;;;19.10;;
12302;SDS011;6214;48.012;7.862;2022-12-13T02:47:12;31.63;;;18.80;;
12302;SDS011;6214;48.012;7.862;2022-12-13T02:49:50;32.80;;;18.88;;
12302;SDS011;6214;48.012;7.862;2022-12-13T02:52:24;31.65;;;19.05;;
12302;SDS011;6214;48.012;7.862;2022-12-13T02:55:14;34.92;;;21.10;;
12302;SDS011;6214;48.012;7.862;2022-12-13T02:57:44;31.92;;;20.05;;
12302;SDS011;6214;48.012;7.862;2022-12-13T03:00:12;32.83;;;20.38;;
12302;SDS011;6214;48.012;7.862;2022-12-13T03:05:16;34.30;;;20.38;;
12302;SDS011;6214;48.012;7.862;2022-12-13T03:08:20;32.10;;;20.40;;
12302;SDS011;6214;48.012;7.862;2022-12-13T03:10:58;32.60;;;20.35;;
12302;SDS011;6214;48.012;7.862;2022-12-13T03:18:48;34.45;;;21.42;;
12302;SDS011;6214;48.012;7.862;2022-12-13T03:21:17;36.72;;;22.20;;
12302;SDS011;6214;48.012;7.862;2022-12-13T03:23:44;35.30;;;21.45;;
12302;SDS011;6214;48.012;7.862;2022-12-13T03:26:13;33.20;;;20.52;;
12302;SDS011;6214;48.012;7.862;2022-12-13T03:28:46;34.70;;;21.60;;
12302;SDS011;6214;48.012;7.862;2022-12-13T03:31:13;35.72;;;21.63;;
12302;SDS011;6214;48.012;7.862;2022-12-13T03:33:40;36.28;;;21.90;;
12302;SDS011;6214;48.012;7.862;2022-12-13T03:36:07;35.33;;;21.65;;
12302;SDS011;6214;48.012;7.862;2022-12-13T03:38:34;36.92;;;20.50;;
12302;SDS011;6214;48.012;7.862;2022-12-13T03:41:04;33.78;;;21.45;;
12302;SDS011;6214;48.012;7.862;2022-12-13T03:43:35;34.70;;;20.60;;
12302;SDS011;6214;48.012;7.862;2022-12-13T03:46:03;33.90;;;20.55;;
12302;SDS011;6214;48.012;7.862;2022-12-13T03:48:30;34.80;;;21.25;;
12302;SDS011;6214;48.012;7.862;2022-12-13T03:50:57;36.80;;;21.90;;
12302;SDS011;6214;48.012;7.862;2022-12-13T03:53:24;35.92;;;21.75;;
12302;SDS011;6214;48.012;7.862;2022-12-13T03:56:03;35.72;;;22.63;;
12302;SDS011;6214;48.012;7.862;2022-12-13T03:58:32;35.93;;;22.33;;
12302;SDS011;6214;48.012;7.862;2022-12-13T04:01:06;36.78;;;22.00;;
12302;SDS011;6214;48.012;7.862;2022-12-13T04:03:35;35.58;;;21.60;;
12302;SDS011;6214;48.012;7.862;2022-12-13T04:06:03;34.67;;;21.80;;
12302;SDS011;6214;48.012;7.862;2022-12-13T04:08:31;35.40;;;21.60;;
12302;SDS011;6214;48.012;7.862;2022-12-13T04:10:59;35.95;;;22.48;;
12302;SDS011;6214;48.012;7.862;2022-12-13T04:13:46;35.50;;;21.48;;
12302;SDS011;6214;48.012;7.862;2022-12-13T04:16:13;35.20;;;22.20;;
12302;SDS011;6214;48.012;7.862;2022-12-13T04:18:39;35.88;;;22.40;;
12302;SDS011;6214;48.012;7.862;2022-12-13T04:21:06;33.40;;;20.58;;
12302;SDS011;6214;48.012;7.862;2022-12-13T04:23:33;35.30;;;21.23;;
12302;SDS011;6214;48.012;7.862;2022-12-13T04:26:00;36.03;;;22.07;;
12302;SDS011;6214;48.012;7.862;2022-12-13T04:28:27;35.92;;;22.00;;
12302;SDS011;6214;48.012;7.862;2022-12-13T04:30:54;35.95;;;21.45;;
12302;SDS011;6214;48.012;7.862;2022-12-13T04:33:21;34.90;;;20.77;;
12302;SDS011;6214;48.012;7.862;2022-12-13T04:35:48;35.63;;;21.50;;
12302;SDS011;6214;48.012;7.862;2022-12-13T04:38:16;34.67;;;22.02;;
12302;SDS011;6214;48.012;7.862;2022-12-13T04:40:43;34.65;;;21.42;;
12302;SDS011;6214;48.012;7.862;2022-12-13T04:43:10;35.22;;;21.67;;
12302;SDS011;6214;48.012;7.862;2022-12-13T04:45:38;35.55;;;21.95;;
12302;SDS011;6214;48.012;7.862;2022-12-13T04:48:06;34.93;;;21.50;;
12302;SDS011;6214;48.012;7.862;2022-12-13T04:50:33;34.67;;;21.05;;
12302;SDS011;6214;48.012;7.862;2022-12-13T04:53:00;35.80;;;21.50;;
12302;SDS011;6214;48.012;7.862;2022-12-13T04:55:27;35.83;;;21.50;;
12302;SDS011;6214;48.012;7.862;2022-12-13T04:57:54;35.40;;;21.25;;
12302;SDS011;6214;48.012;7.862;2022-12-13T05:00:20;33.60;;;20.63;;
12302;SDS011;6214;48.012;7.862;2022-12-13T05:02:48;36.20;;;21.15;;
12302;SDS011;6214;48.012;7.862;2022-12-13T05:05:15;35.38;;;21.33;;
12302;SDS011;6214;48.012;7.862;2022-12-13T05:07:43;33.83;;;20.70;;
12302;SDS011;6214;48.012;7.862;2022-12-13T05:10:10;33.95;;;20.92;;
12302;SDS011;6214;48.012;7.862;2022-12-13T05:12:37;33.20;;;20.17;;
12302;SDS011;6214;48.012;7.862;2022-12-13T05:15:04;36.72;;;22.02;;
12302;SDS011;6214;48.012;7.862;2022-12-13T05:17:32;34.63;;;21.30;;
12302;SDS011;6214;48.012;7.862;2022-12-13T05:19:59;35.95;;;23.20;;
12302;SDS011;6214;48.012;7.862;2022-12-13T05:22:26;35.75;;;21.50;;
12302;SDS011;6214;48.012;7.862;2022-12-13T05:24:53;36.65;;;21.42;;
12302;SDS011;6214;48.012;7.862;2022-12-13T05:27:19;35.30;;;21.90;;
12302;SDS011;6214;48.012;7.862;2022-12-13T05:29:53;36.33;;;22.08;;
12302;SDS011;6214;48.012;7.862;2022-12-13T05:32:33;36.77;;;21.87;;
12302;SDS011;6214;48.012;7.862;2022-12-13T05:35:13;36.72;;;22.60;;
12302;SDS011;6214;48.012;7.862;2022-12-13T05:37:49;35.00;;;21.05;;
12302;SDS011;6214;48.012;7.862;2022-12-13T05:40:20;36.28;;;21.30;;
12302;SDS011;6214;48.012;7.862;2022-12-13T05:42:50;36.20;;;21.60;;
12302;SDS011;6214;48.012;7.862;2022-12-13T05:45:27;36.58;;;21.70;;
12302;SDS011;6214;48.012;7.862;2022-12-13T05:47:58;37.95;;;22.52;;
12302;SDS011;6214;48.012;7.862;2022-12-13T05:50:25;37.17;;;21.52;;
12302;SDS011;6214;48.012;7.862;2022-12-13T05:52:52;35.35;;;22.25;;
12302;SDS011;6214;48.012;7.862;2022-12-13T05:55:18;37.25;;;21.70;;
12302;SDS011;6214;48.012;7.862;2022-12-13T05:57:45;38.50;;;22.43;;
12302;SDS011;6214;48.012;7.862;2022-12-13T06:00:16;35.97;;;22.05;;
12302;SDS011;6214;48.012;7.862;2022-12-13T06:02:55;37.80;;;23.35;;
12302;SDS011;6214;48.012;7.862;2022-12-13T06:05:26;37.47;;;22.00;;
12302;SDS011;6214;48.012;7.862;2022-12-13T06:07:54;38.67;;;23.88;;
12302;SDS011;6214;48.012;7.862;2022-12-13T06:10:23;37.35;;;22.33;;
12302;SDS011;6214;48.012;7.862;2022-12-13T06:13:00;38.10;;;22.73;;
12302;SDS011;6214;48.012;7.862;2022-12-13T06:15:46;36.65;;;21.48;;
12302;SDS011;6214;48.012;7.862;2022-12-13T06:18:13;35.78;;;22.30;;
12302;SDS011;6214;48.012;7.862;2022-12-13T06:20:40;37.20;;;22.65;;
12302;SDS011;6214;48.012;7.862;2022-12-13T06:23:07;36.35;;;21.88;;
12302;SDS011;6214;48.012;7.862;2022-12-13T06:25:37;36.53;;;22.40;;
12302;SDS011;6214;48.012;7.862;2022-12-13T06:28:04;37.78;;;22.80;;
12302;SDS011;6214;48.012;7.862;2022-12-13T06:30:31;38.10;;;22.80;;
12302;SDS011;6214;48.012;7.862;2022-12-13T06:32:58;37.42;;;21.75;;
12302;SDS011;6214;48.012;7.862;2022-12-13T06:35:25;38.05;;;22.27;;
12302;SDS011;6214;48.012;7.862;2022-12-13T06:37:55;39.00;;;22.55;;
12302;SDS011;6214;48.012;7.862;2022-12-13T06:40:27;38.53;;;23.27;;
12302;SDS011;6214;48.012;7.862;2022-12-13T06:42:55;38.43;;;23.00;;
12302;SDS011;6214;48.012;7.862;2022-12-13T06:45:22;37.38;;;22.55;;
12302;SDS011;6214;48.012;7.862;2022-12-13T06:47:50;37.20;;;22.88;;
12302;SDS011;6214;48.012;7.862;2022-12-13T06:50:17;37.97;;;23.10;;
12302;SDS011;6214;48.012;7.862;2022-12-13T06:52:46;40.15;;;23.20;;
12302;SDS011;6214;48.012;7.862;2022-12-13T06:55:13;38.42;;;23.33;;
12302;SDS011;6214;48.012;7.862;2022-12-13T06:57:49;37.08;;;22.70;;
12302;SDS011;6214;48.012;7.862;2022-12-13T07:00:17;37.80;;;23.70;;
12302;SDS011;6214;48.012;7.862;2022-12-13T07:02:52;36.67;;;21.73;;
12302;SDS011;6214;48.012;7.862;2022-12-13T07:05:20;37.38;;;22.23;;
12302;SDS011;6214;48.012;7.862;2022-12-13T07:07:47;36.05;;;22.08;;
12302;SDS011;6214;48.012;7.862;2022-12-13T07:10:15;37.95;;;21.92;;
12302;SDS011;6214;48.012;7.862;2022-12-13T07:12:48;37.08;;;21.92;;
12302;SDS011;6214;48.012;7.862;2022-12-13T07:15:15;39.00;;;22.83;;
12302;SDS011;6214;48.012;7.862;2022-12-13T07:17:42;37.67;;;22.92;;
12302;SDS011;6214;48.012;7.862;2022-12-13T07:20:09;37.63;;;22.77;;
12302;SDS011;6214;48.012;7.862;2022-12-13T07:22:36;37.72;;;22.83;;
12302;SDS011;6214;48.012;7.862;2022-12-13T07:25:12;35.63;;;22.33;;
12302;SDS011;6214;48.012;7.862;2022-12-13T07:27:59;37.10;;;22.10;;
12302;SDS011;6214;48.012;7.862;2022-12-13T07:30:29;38.03;;;21.67;;
12302;SDS011;6214;48.012;7.862;2022-12-13T07:32:59;36.85;;;21.70;;
12302;SDS011;6214;48.012;7.862;2022-12-13T07:35:27;37.10;;;22.35;;
12302;SDS011;6214;48.012;7.862;2022-12-13T07:37:54;36.42;;;21.73;;
12302;SDS011;6214;48.012;7.862;2022-12-13T07:40:22;36.55;;;21.90;;
12302;SDS011;6214;48.012;7.862;2022-12-13T07:42:49;38.90;;;22.92;;
12302;SDS011;6214;48.012;7.862;2022-12-13T07:45:20;38.63;;;21.88;;
12302;SDS011;6214;48.012;7.862;2022-12-13T07:47:48;36.72;;;22.50;;
12302;SDS011;6214;48.012;7.862;2022-12-13T07:50:15;35.53;;;21.88;;
12302;SDS011;6214;48.012;7.862;2022-12-13T07:53:03;36.75;;;22.35;;
12302;SDS011;6214;48.012;7.862;2022-12-13T07:55:33;36.13;;;22.73;;
12302;SDS011;6214;48.012;7.862;2022-12-13T07:58:12;43.65;;;25.92;;
12302;SDS011;6214;48.012;7.862;2022-12-13T08:00:41;38.53;;;23.55;;
12302;SDS011;6214;48.012;7.862;2022-12-13T08:03:12;40.88;;;23.65;;
12302;SDS011;6214;48.012;7.862;2022-12-13T08:05:57;38.88;;;23.08;;
12302;SDS011;6214;48.012;7.862;2022-12-13T08:08:24;36.10;;;21.90;;
12302;SDS011;6214;48.012;7.862;2022-12-13T08:11:03;37.45;;;22.70;;
12302;SDS011;6214;48.012;7.862;2022-12-13T08:13:35;37.75;;;22.50;;
12302;SDS011;6214;48.012;7.862;2022-12-13T08:16:03;36.30;;;22.42;;
12302;SDS011;6214;48.012;7.862;2022-12-13T08:18:51;37.40;;;22.95;;
12302;SDS011;6214;48.012;7.862;2022-12-13T08:21:29;36.95;;;22.23;;
12302;SDS011;6214;48.012;7.862;2022-12-13T08:24:20;38.45;;;22.50;;
12302;SDS011;6214;48.012;7.862;2022-12-13T08:26:47;38.42;;;22.52;;
12302;SDS011;6214;48.012;7.862;2022-12-13T08:29:14;37.75;;;23.13;;
12302;SDS011;6214;48.012;7.862;2022-12-13T08:32:03;39.47;;;23.60;;
12302;SDS011;6214;48.012;7.862;2022-12-13T08:34:32;36.50;;;22.27;;
12302;SDS011;6214;48.012;7.862;2022-12-13T08:36:59;37.45;;;23.10;;
12302;SDS011;6214;48.012;7.862;2022-12-13T08:39:29;36.78;;;22.55;;
12302;SDS011;6214;48.012;7.862;2022-12-13T08:42:01;37.80;;;22.42;;
12302;SDS011;6214;48.012;7.862;2022-12-13T08:44:50;38.13;;;22.88;;
12302;SDS011;6214;48.012;7.862;2022-12-13T08:47:22;39.53;;;23.73;;
12302;SDS011;6214;48.012;7.862;2022-12-13T08:49:55;38.20;;;23.27;;
12302;SDS011;6214;48.012;7.862;2022-12-13T08:52:33;39.08;;;24.58;;
12302;SDS011;6214;48.012;7.862;2022-12-13T08:55:06;36.10;;;23.40;;
12302;SDS011;6214;48.012;7.862;2022-12-13T08:57:38;38.72;;;22.95;;
12302;SDS011;6214;48.012;7.862;2022-12-13T09:00:06;38.53;;;22.93;;
12302;SDS011;6214;48.012;7.862;2022-12-13T09:02:36;34.83;;;22.10;;
12302;SDS011;6214;48.012;7.862;2022-12-13T09:05:04;38.13;;;23.50;;
12302;SDS011;6214;48.012;7.862;2022-12-13T09:07:33;38.33;;;24.48;;
12302;SDS011;6214;48.012;7.862;2022-12-13T09:10:02;36.88;;;23.20;;
12302;SDS011;6214;48.012;7.862;2022-12-13T09:12:49;37.25;;;23.02;;
12302;SDS011;6214;48.012;7.862;2022-12-13T09:15:17;36.45;;;22.55;;
12302;SDS011;6214;48.012;7.862;2022-12-13T09:17:48;37.20;;;22.87;;
12302;SDS011;6214;48.012;7.862;2022-12-13T09:20:18;36.58;;;22.08;;
12302;SDS011;6214;48.012;7.862;2022-12-13T09:22:55;38.15;;;23.88;;
12302;SDS011;6214;48.012;7.862;2022-12-13T09:25:28;37.85;;;23.50;;
12302;SDS011;6214;48.012;7.862;2022-12-13T09:28:06;40.35;;;24.83;;
12302;SDS011;6214;48.012;7.862;2022-12-13T09:30:36;37.00;;;24.13;;
12302;SDS011;6214;48.012;7.862;2022-12-13T09:33:04;40.38;;;24.63;;
12302;SDS011;6214;48.012;7.862;2022-12-13T09:35:51;36.88;;;23.02;;
12302;SDS011;6214;48.012;7.862;2022-12-13T09:38:18;37.65;;;23.40;;
12302;SDS011;6214;48.012;7.862;2022-12-13T09:40:46;37.13;;;23.58;;
12302;SDS011;6214;48.012;7.862;2022-12-13T09:43:26;42.55;;;33.60;;
12302;SDS011;6214;48.012;7.862;2022-12-13T09:45:59;36.92;;;20.85;;
12302;SDS011;6214;48.012;7.862;2022-12-13T09:48:49;37.28;;;23.10;;
12302;SDS011;6214;48.012;7.862;2022-12-13T09:51:28;40.42;;;24.55;;
12302;SDS011;6214;48.012;7.862;2022-12-13T09:54:12;37.58;;;24.38;;
12302;SDS011;6214;48.012;7.862;2022-12-13T09:56:48;39.65;;;23.60;;
12302;SDS011;6214;48.012;7.862;2022-12-13T09:59:32;37.20;;;23.10;;
12302;SDS011;6214;48.012;7.862;2022-12-13T10:02:02;36.65;;;23.55;;
12302;SDS011;6214;48.012;7.862;2022-12-13T10:04:40;36.72;;;23.40;;
12302;SDS011;6214;48.012;7.862;2022-12-13T10:07:17;36.33;;;23.05;;
12302;SDS011;6214;48.012;7.862;2022-12-13T10:09:46;37.03;;;22.92;;
12302;SDS011;6214;48.012;7.862;2022-12-13T10:12:15;35.35;;;22.70;;
12302;SDS011;6214;48.012;7.862;2022-12-13T10:14:45;35.53;;;23.73;;
12302;SDS011;6214;48.012;7.862;2022-12-13T10:17:17;36.83;;;23.50;;
12302;SDS011;6214;48.012;7.862;2022-12-13T10:19:47;38.15;;;24.23;;
12302;SDS011;6214;48.012;7.862;2022-12-13T10:22:19;36.53;;;23.52;;
12302;SDS011;6214;48.012;7.862;2022-12-13T10:24:49;36.83;;;22.80;;
12302;SDS011;6214;48.012;7.862;2022-12-13T10:27:43;37.70;;;22.30;;
12302;SDS011;6214;48.012;7.862;2022-12-13T10:30:11;34.65;;;22.42;;
12302;SDS011;6214;48.012;7.862;2022-12-13T10:32:50;37.38;;;23.52;;
12302;SDS011;6214;48.012;7.862;2022-12-13T10:37:55;36.33;;;22.50;;
12302;SDS011;6214;48.012;7.862;2022-12-13T10:40:34;36.83;;;23.70;;
12302;SDS011;6214;48.012;7.862;2022-12-13T10:43:07;35.30;;;22.15;;
12302;SDS011;6214;48.012;7.862;2022-12-13T10:45:39;37.13;;;23.77;;
12302;SDS011;6214;48.012;7.862;2022-12-13T10:48:18;35.28;;;22.80;;
12302;SDS011;6214;48.012;7.862;2022-12-13T10:50:58;35.80;;;22.67;;
12302;SDS011;6214;48.012;7.862;2022-12-13T10:53:34;36.00;;;22.88;;
12302;SDS011;6214;48.012;7.862;2022-12-13T10:56:12;36.08;;;23.02;;
12302;SDS011;6214;48.012;7.862;2022-12-13T10:58:50;35.25;;;22.40;;
12302;SDS011;6214;48.012;7.862;2022-12-13T11:01:40;35.42;;;22.08;;
12302;SDS011;6214;48.012;7.862;2022-12-13T11:04:27;31.83;;;20.00;;
12302;SDS011;6214;48.012;7.862;2022-12-13T11:07:00;33.20;;;20.65;;
12302;SDS011;6214;48.012;7.862;2022-12-13T11:09:56;32.85;;;19.23;;
12302;SDS011;6214;48.012;7.862;2022-12-13T11:12:31;33.60;;;20.95;;
12302;SDS011;6214;48.012;7.862;2022-12-13T11:14:59;34.03;;;21.67;;
12302;SDS011;6214;48.012;7.862;2022-12-13T11:17:29;34.35;;;20.80;;
12302;SDS011;6214;48.012;7.862;2022-12-13T11:20:01;34.27;;;21.10;;
12302;SDS011;6214;48.012;7.862;2022-12-13T11:22:33;32.90;;;20.10;;
12302;SDS011;6214;48.012;7.862;2022-12-13T11:25:05;33.03;;;20.60;;
12302;SDS011;6214;48.012;7.862;2022-12-13T11:32:48;31.70;;;19.88;;
12302;SDS011;6214;48.012;7.862;2022-12-13T11:38:10;34.53;;;22.48;;
12302;SDS011;6214;48.012;7.862;2022-12-13T11:40:43;33.00;;;20.57;;
12302;SDS011;6214;48.012;7.862;2022-12-13T11:45:57;31.77;;;19.55;;
12302;SDS011;6214;48.012;7.862;2022-12-13T11:48:43;33.20;;;21.10;;
12302;SDS011;6214;48.012;7.862;2022-12-13T11:51:24;32.80;;;20.83;;
12302;SDS011;6214;48.012;7.862;2022-12-13T11:54:03;33.45;;;20.30;;
12302;SDS011;6214;48.012;7.862;2022-12-13T11:56:37;31.63;;;20.25;;
12302;SDS011;6214;48.012;7.862;2022-12-13T11:59:53;34.33;;;21.23;;
12302;SDS011;6214;48.012;7.862;2022-12-13T12:05:04;32.78;;;20.60;;
12302;SDS011;6214;48.012;7.862;2022-12-13T12:07:43;33.20;;;21.27;;
12302;SDS011;6214;48.012;7.862;2022-12-13T12:10:39;33.70;;;20.60;;
12302;SDS011;6214;48.012;7.862;2022-12-13T12:13:28;33.10;;;21.33;;
12302;SDS011;6214;48.012;7.862;2022-12-13T12:19:10;34.65;;;20.90;;
12302;SDS011;6214;48.012;7.862;2022-12-13T12:24:52;35.15;;;21.23;;
12302;SDS011;6214;48.012;7.862;2022-12-13T12:30:23;35.03;;;21.10;;
12302;SDS011;6214;48.012;7.862;2022-12-13T12:33:01;34.13;;;20.90;;
12302;SDS011;6214;48.012;7.862;2022-12-13T12:47:18;33.30;;;20.80;;
12302;SDS011;6214;48.012;7.862;2022-12-13T12:50:31;32.72;;;21.00;;
12302;SDS011;6214;48.012;7.862;2022-12-13T12:53:28;33.83;;;20.65;;
12302;SDS011;6214;48.012;7.862;2022-12-13T12:56:16;34.40;;;21.70;;
12302;SDS011;6214;48.012;7.862;2022-12-13T13:02:04;33.85;;;21.20;;
12302;SDS011;6214;48.012;7.862;2022-12-13T13:04:53;32.72;;;19.77;;
12302;SDS011;6214;48.012;7.862;2022-12-13T13:07:26;34.28;;;20.65;;
12302;SDS011;6214;48.012;7.862;2022-12-13T13:10:05;33.70;;;20.10;;
12302;SDS011;6214;48.012;7.862;2022-12-13T13:12:51;31.98;;;20.10;;
12302;SDS011;6214;48.012;7.862;2022-12-13T13:21:32;32.30;;;20.40;;
12302;SDS011;6214;48.012;7.862;2022-12-13T13:24:17;33.33;;;20.63;;
12302;SDS011;6214;48.012;7.862;2022-12-13T13:26:50;32.25;;;20.52;;
12302;SDS011;6214;48.012;7.862;2022-12-13T13:32:00;35.37;;;21.07;;
12302;SDS011;6214;48.012;7.862;2022-12-13T13:35:44;32.90;;;20.73;;
12302;SDS011;6214;48.012;7.862;2022-12-13T13:37:54;34.70;;;21.58;;
12302;SDS011;6214;48.012;7.862;2022-12-13T13:40:27;36.03;;;22.30;;
12302;SDS011;6214;48.012;7.862;2022-12-13T13:51:11;33.58;;;21.95;;
12302;SDS011;6214;48.012;7.862;2022-12-13T13:56:44;42.13;;;29.23;;
12302;SDS011;6214;48.012;7.862;2022-12-13T14:05:28;41.92;;;28.05;;
12302;SDS011;6214;48.012;7.862;2022-12-13T14:08:17;35.70;;;21.95;;
12302;SDS011;6214;48.012;7.862;2022-12-13T14:25:58;33.85;;;20.92;;
12302;SDS011;6214;48.012;7.862;2022-12-13T14:31:18;34.33;;;19.80;;
12302;SDS011;6214;48.012;7.862;2022-12-13T14:33:54;33.07;;;20.50;;
12302;SDS011;6214;48.012;7.862;2022-12-13T14:36:27;37.47;;;22.15;;
12302;SDS011;6214;48.012;7.862;2022-12-13T14:38:58;34.07;;;20.97;;
12302;SDS011;6214;48.012;7.862;2022-12-13T14:41:54;35.20;;;21.42;;
12302;SDS011;6214;48.012;7.862;2022-12-13T14:44:30;32.60;;;20.45;;
12302;SDS011;6214;48.012;7.862;2022-12-13T14:47:05;35.00;;;21.33;;
12302;SDS011;6214;48.012;7.862;2022-12-13T14:49:34;35.00;;;20.27;;
12302;SDS011;6214;48.012;7.862;2022-12-13T14:52:05;32.90;;;20.70;;
12302;SDS011;6214;48.012;7.862;2022-12-13T14:54:56;34.70;;;22.02;;
12302;SDS011;6214;48.012;7.862;2022-12-13T14:57:26;34.55;;;20.60;;
12302;SDS011;6214;48.012;7.862;2022-12-13T14:59:56;32.63;;;20.33;;
12302;SDS011;6214;48.012;7.862;2022-12-13T15:02:28;33.37;;;20.77;;
12302;SDS011;6214;48.012;7.862;2022-12-13T15:05:01;33.80;;;20.05;;
12302;SDS011;6214;48.012;7.862;2022-12-13T15:07:36;32.28;;;19.40;;
12302;SDS011;6214;48.012;7.862;2022-12-13T15:13:05;33.63;;;20.55;;
12302;SDS011;6214;48.012;7.862;2022-12-13T15:15:33;34.20;;;20.70;;
12302;SDS011;6214;48.012;7.862;2022-12-13T15:18:06;35.95;;;20.60;;
12302;SDS011;6214;48.012;7.862;2022-12-13T15:20:43;34.25;;;20.88;;
12302;SDS011;6214;48.012;7.862;2022-12-13T15:26:29;35.63;;;23.42;;
12302;SDS011;6214;48.012;7.862;2022-12-13T15:28:54;61.05;;;54.72;;
12302;SDS011;6214;48.012;7.862;2022-12-13T15:31:26;42.03;;;35.28;;
12302;SDS011;6214;48.012;7.862;2022-12-13T15:33:54;35.78;;;23.45;;
12302;SDS011;6214;48.012;7.862;2022-12-13T15:37:05;37.70;;;25.92;;
12302;SDS011;6214;48.012;7.862;2022-12-13T15:39:57;34.13;;;21.65;;
12302;SDS011;6214;48.012;7.862;2022-12-13T15:42:32;34.45;;;20.45;;
12302;SDS011;6214;48.012;7.862;2022-12-13T15:45:02;36.42;;;22.30;;
12302;SDS011;6214;48.012;7.862;2022-12-13T15:47:32;31.90;;;20.57;;
12302;SDS011;6214;48.012;7.862;2022-12-13T15:50:00;34.85;;;20.88;;
12302;SDS011;6214;48.012;7.862;2022-12-13T15:52:31;33.90;;;20.52;;
12302;SDS011;6214;48.012;7.862;2022-12-13T15:57:34;34.28;;;21.63;;
12302;SDS011;6214;48.012;7.862;2022-12-13T16:03:27;33.38;;;20.00;;
12302;SDS011;6214;48.012;7.862;2022-12-13T16:05:46;32.65;;;19.92;;
12302;SDS011;6214;48.012;7.862;2022-12-13T16:10:57;34.47;;;20.75;;
12302;SDS011;6214;48.012;7.862;2022-12-13T16:13:26;33.08;;;20.73;;
12302;SDS011;6214;48.012;7.862;2022-12-13T16:18:53;34.33;;;20.27;;
12302;SDS011;6214;48.012;7.862;2022-12-13T16:21:25;31.27;;;18.92;;
12302;SDS011;6214;48.012;7.862;2022-12-13T16:23:53;34.63;;;21.02;;
12302;SDS011;6214;48.012;7.862;2022-12-13T16:26:24;33.33;;;21.00;;
12302;SDS011;6214;48.012;7.862;2022-12-13T16:28:53;32.45;;;20.75;;
12302;SDS011;6214;48.012;7.862;2022-12-13T16:31:24;35.07;;;20.53;;
12302;SDS011;6214;48.012;7.862;2022-12-13T16:33:53;34.20;;;21.20;;
12302;SDS011;6214;48.012;7.862;2022-12-13T16:36:20;35.03;;;21.90;;
12302;SDS011;6214;48.012;7.862;2022-12-13T16:38:46;36.03;;;23.67;;
12302;SDS011;6214;48.012;7.862;2022-12-13T16:41:13;39.67;;;25.88;;
12302;SDS011;6214;48.012;7.862;2022-12-13T16:46:18;37.20;;;23.15;;
12302;SDS011;6214;48.012;7.862;2022-12-13T16:49:09;34.08;;;21.70;;
12302;SDS011;6214;48.012;7.862;2022-12-13T16:51:47;36.95;;;22.23;;
12302;SDS011;6214;48.012;7.862;2022-12-13T16:54:15;36.47;;;22.80;;
12302;SDS011;6214;48.012;7.862;2022-12-13T16:56:43;41.95;;;25.40;;
12302;SDS011;6214;48.012;7.862;2022-12-13T16:59:20;37.38;;;25.17;;
12302;SDS011;6214;48.012;7.862;2022-12-13T17:01:50;35.60;;;22.95;;
12302;SDS011;6214;48.012;7.862;2022-12-13T17:04:18;38.03;;;23.85;;
12302;SDS011;6214;48.012;7.862;2022-12-13T17:06:50;35.53;;;20.57;;
12302;SDS011;6214;48.012;7.862;2022-12-13T17:09:21;34.03;;;21.40;;
12302;SDS011;6214;48.012;7.862;2022-12-13T17:11:48;34.45;;;21.70;;
12302;SDS011;6214;48.012;7.862;2022-12-13T17:14:15;35.28;;;22.52;;
12302;SDS011;6214;48.012;7.862;2022-12-13T17:16:42;33.87;;;21.87;;
12302;SDS011;6214;48.012;7.862;2022-12-13T17:19:11;36.15;;;22.00;;